sensor_id;sensor_type;location;lat;lon;timestamp;temperature;humidity
25616;DHT22;13482;48.234;13.006;2023-06-10T00:00:03;19.70;62.30
25616;DHT22;13482;48.234;13.006;2023-06-10T00:02:33;19.70;62.30
25616;DHT22;13482;48.234;13.006;2023-06-10T00:05:00;19.70;62.40
25616;DHT22;13482;48.234;13.006;2023-06-10T00:07:28;19.70;62.40
25616;DHT22;13482;48.234;13.006;2023-06-10T00:09:55;19.70;62.60
25616;DHT22;13482;48.234;13.006;2023-06-10T00:12:22;19.60;62.70
25616;DHT22;13482;48.234;13.006;2023-06-10T00:14:50;19.60;62.90
25616;DHT22;13482;48.234;13.006;2023-06-10T00:17:18;19.60;62.90
25616;DHT22;13482;48.234;13.006;2023-06-10T00:19:46;19.60;62.90
25616;DHT22;13482;48.234;13.006;2023-06-10T00:22:14;19.60;63.10
25616;DHT22;13482;48.234;13.006;2023-06-10T00:24:42;19.60;63.10
25616;DHT22;13482;48.234;13.006;2023-06-10T00:27:10;19.60;63.20
25616;DHT22;13482;48.234;13.006;2023-06-10T00:29:37;19.60;63.20
25616;DHT22;13482;48.234;13.006;2023-06-10T00:32:06;19.50;63.20
25616;DHT22;13482;48.234;13.006;2023-06-10T00:34:34;19.50;63.20
25616;DHT22;13482;48.234;13.006;2023-06-10T00:37:02;19.50;63.20
25616;DHT22;13482;48.234;13.006;2023-06-10T00:39:30;19.50;63.10
25616;DHT22;13482;48.234;13.006;2023-06-10T00:41:57;19.50;63.10
25616;DHT22;13482;48.234;13.006;2023-06-10T00:44:25;19.40;63.10
25616;DHT22;13482;48.234;13.006;2023-06-10T00:46:52;19.40;63.10
25616;DHT22;13482;48.234;13.006;2023-06-10T00:49:22;19.40;63.10
25616;DHT22;13482;48.234;13.006;2023-06-10T00:51:50;19.30;63.10
25616;DHT22;13482;48.234;13.006;2023-06-10T00:54:19;19.30;63.10
25616;DHT22;13482;48.234;13.006;2023-06-10T00:56:47;19.30;63.10
25616;DHT22;13482;48.234;13.006;2023-06-10T00:59:15;19.30;63.50
25616;DHT22;13482;48.234;13.006;2023-06-10T01:01:43;19.30;63.40
25616;DHT22;13482;48.234;13.006;2023-06-10T01:04:14;19.20;63.40
25616;DHT22;13482;48.234;13.006;2023-06-10T01:15:08;19.10;63.00
25616;DHT22;13482;48.234;13.006;2023-06-10T01:18:03;19.00;63.30
25616;DHT22;13482;48.234;13.006;2023-06-10T01:20:32;19.00;65.10
25616;DHT22;13482;48.234;13.006;2023-06-10T01:23:01;18.90;63.60
25616;DHT22;13482;48.234;13.006;2023-06-10T01:25:33;18.90;63.80
25616;DHT22;13482;48.234;13.006;2023-06-10T01:28:14;18.90;63.90
25616;DHT22;13482;48.234;13.006;2023-06-10T01:33:52;18.80;64.80
25616;DHT22;13482;48.234;13.006;2023-06-10T01:36:22;18.80;64.60
25616;DHT22;13482;48.234;13.006;2023-06-10T01:38:53;18.80;64.40
25616;DHT22;13482;48.234;13.006;2023-06-10T01:41:22;18.80;64.50
25616;DHT22;13482;48.234;13.006;2023-06-10T01:43:50;18.70;64.60
25616;DHT22;13482;48.234;13.006;2023-06-10T01:46:17;18.70;64.70
25616;DHT22;13482;48.234;13.006;2023-06-10T01:48:47;18.70;64.80
25616;DHT22;13482;48.234;13.006;2023-06-10T01:51:15;18.70;64.90
25616;DHT22;13482;48.234;13.006;2023-06-10T01:53:42;18.70;65.10
25616;DHT22;13482;48.234;13.006;2023-06-10T01:56:10;18.60;65.20
25616;DHT22;13482;48.234;13.006;2023-06-10T01:58:44;18.60;65.00
25616;DHT22;13482;48.234;13.006;2023-06-10T02:01:11;18.60;64.80
25616;DHT22;13482;48.234;13.006;2023-06-10T02:03:38;18.60;64.70
25616;DHT22;13482;48.234;13.006;2023-06-10T02:06:06;18.50;64.50
25616;DHT22;13482;48.234;13.006;2023-06-10T02:08:34;18.50;64.50
25616;DHT22;13482;48.234;13.006;2023-06-10T02:11:01;18.50;64.40
25616;DHT22;13482;48.234;13.006;2023-06-10T02:13:29;18.50;64.40
25616;DHT22;13482;48.234;13.006;2023-06-10T02:15:56;18.40;64.50
25616;DHT22;13482;48.234;13.006;2023-06-10T02:18:24;18.40;64.60
25616;DHT22;13482;48.234;13.006;2023-06-10T02:20:51;18.40;64.80
25616;DHT22;13482;48.234;13.006;2023-06-10T02:23:19;18.30;64.80
25616;DHT22;13482;48.234;13.006;2023-06-10T02:25:46;18.30;64.90
25616;DHT22;13482;48.234;13.006;2023-06-10T02:28:15;18.30;65.20
25616;DHT22;13482;48.234;13.006;2023-06-10T02:30:43;18.30;65.40
25616;DHT22;13482;48.234;13.006;2023-06-10T02:33:10;18.30;65.40
25616;DHT22;13482;48.234;13.006;2023-06-10T02:35:39;18.20;65.30
25616;DHT22;13482;48.234;13.006;2023-06-10T02:38:06;18.20;65.30
25616;DHT22;13482;48.234;13.006;2023-06-10T02:40:34;18.20;65.30
25616;DHT22;13482;48.234;13.006;2023-06-10T02:43:01;18.20;65.40
25616;DHT22;13482;48.234;13.006;2023-06-10T02:45:29;18.10;65.50
25616;DHT22;13482;48.234;13.006;2023-06-10T02:47:56;18.10;65.60
25616;DHT22;13482;48.234;13.006;2023-06-10T02:50:23;18.10;65.40
25616;DHT22;13482;48.234;13.006;2023-06-10T02:52:51;18.00;65.30
25616;DHT22;13482;48.234;13.006;2023-06-10T02:55:19;18.00;65.10
25616;DHT22;13482;48.234;13.006;2023-06-10T02:57:47;18.00;65.00
25616;DHT22;13482;48.234;13.006;2023-06-10T03:00:15;17.90;64.80
25616;DHT22;13482;48.234;13.006;2023-06-10T03:02:43;17.90;64.80
25616;DHT22;13482;48.234;13.006;2023-06-10T03:05:12;17.80;64.80
25616;DHT22;13482;48.234;13.006;2023-06-10T03:07:40;17.80;64.80
25616;DHT22;13482;48.234;13.006;2023-06-10T03:10:08;17.80;64.80
25616;DHT22;13482;48.234;13.006;2023-06-10T03:12:35;17.70;65.00
25616;DHT22;13482;48.234;13.006;2023-06-10T03:15:03;17.70;65.10
25616;DHT22;13482;48.234;13.006;2023-06-10T03:17:32;17.70;65.40
25616;DHT22;13482;48.234;13.006;2023-06-10T03:19:59;17.60;65.80
25616;DHT22;13482;48.234;13.006;2023-06-10T03:22:27;17.60;66.00
25616;DHT22;13482;48.234;13.006;2023-06-10T03:24:55;17.60;66.10
25616;DHT22;13482;48.234;13.006;2023-06-10T03:27:24;17.60;66.10
25616;DHT22;13482;48.234;13.006;2023-06-10T03:29:55;17.50;66.10
25616;DHT22;13482;48.234;13.006;2023-06-10T03:32:22;17.50;66.10
25616;DHT22;13482;48.234;13.006;2023-06-10T03:34:49;17.50;66.50
25616;DHT22;13482;48.234;13.006;2023-06-10T03:37:18;17.40;66.60
25616;DHT22;13482;48.234;13.006;2023-06-10T03:39:45;17.40;66.60
25616;DHT22;13482;48.234;13.006;2023-06-10T03:42:13;17.40;66.60
25616;DHT22;13482;48.234;13.006;2023-06-10T03:44:40;17.40;66.70
25616;DHT22;13482;48.234;13.006;2023-06-10T03:47:08;17.40;66.80
25616;DHT22;13482;48.234;13.006;2023-06-10T03:49:35;17.40;66.80
25616;DHT22;13482;48.234;13.006;2023-06-10T03:52:04;17.40;66.60
25616;DHT22;13482;48.234;13.006;2023-06-10T03:54:31;17.40;66.40
25616;DHT22;13482;48.234;13.006;2023-06-10T03:57:01;17.40;66.50
25616;DHT22;13482;48.234;13.006;2023-06-10T03:59:30;17.40;66.40
25616;DHT22;13482;48.234;13.006;2023-06-10T04:01:57;17.40;66.30
25616;DHT22;13482;48.234;13.006;2023-06-10T04:04:26;17.40;66.30
25616;DHT22;13482;48.234;13.006;2023-06-10T04:06:53;17.40;66.30
25616;DHT22;13482;48.234;13.006;2023-06-10T04:09:21;17.40;66.40
25616;DHT22;13482;48.234;13.006;2023-06-10T04:11:48;17.40;66.40
25616;DHT22;13482;48.234;13.006;2023-06-10T04:14:15;17.50;66.50
25616;DHT22;13482;48.234;13.006;2023-06-10T04:16:43;17.50;66.70
25616;DHT22;13482;48.234;13.006;2023-06-10T04:19:10;17.50;66.90
25616;DHT22;13482;48.234;13.006;2023-06-10T04:21:37;17.50;67.20
25616;DHT22;13482;48.234;13.006;2023-06-10T04:24:05;17.60;67.40
25616;DHT22;13482;48.234;13.006;2023-06-10T04:26:34;17.60;67.70
25616;DHT22;13482;48.234;13.006;2023-06-10T04:29:02;17.70;68.00
25616;DHT22;13482;48.234;13.006;2023-06-10T04:31:30;17.80;68.40
25616;DHT22;13482;48.234;13.006;2023-06-10T04:33:59;17.90;68.70
25616;DHT22;13482;48.234;13.006;2023-06-10T04:36:28;18.00;68.90
25616;DHT22;13482;48.234;13.006;2023-06-10T04:38:57;18.10;69.20
25616;DHT22;13482;48.234;13.006;2023-06-10T04:41:24;18.30;69.30
25616;DHT22;13482;48.234;13.006;2023-06-10T04:43:52;18.50;69.40
25616;DHT22;13482;48.234;13.006;2023-06-10T04:46:20;18.60;69.60
25616;DHT22;13482;48.234;13.006;2023-06-10T04:48:48;18.80;69.70
25616;DHT22;13482;48.234;13.006;2023-06-10T04:51:15;19.00;69.70
25616;DHT22;13482;48.234;13.006;2023-06-10T04:53:43;19.10;69.70
25616;DHT22;13482;48.234;13.006;2023-06-10T04:56:11;19.30;69.70
25616;DHT22;13482;48.234;13.006;2023-06-10T04:58:39;19.50;69.60
25616;DHT22;13482;48.234;13.006;2023-06-10T05:01:06;19.60;69.50
25616;DHT22;13482;48.234;13.006;2023-06-10T05:03:33;19.80;69.30
25616;DHT22;13482;48.234;13.006;2023-06-10T05:06:01;19.90;69.20
25616;DHT22;13482;48.234;13.006;2023-06-10T05:08:28;20.10;69.10
25616;DHT22;13482;48.234;13.006;2023-06-10T05:10:56;20.20;69.10
25616;DHT22;13482;48.234;13.006;2023-06-10T05:13:23;20.40;69.10
25616;DHT22;13482;48.234;13.006;2023-06-10T05:15:50;20.50;69.10
25616;DHT22;13482;48.234;13.006;2023-06-10T05:18:18;20.60;69.00
25616;DHT22;13482;48.234;13.006;2023-06-10T05:20:45;20.80;68.90
25616;DHT22;13482;48.234;13.006;2023-06-10T05:23:13;20.90;68.90
25616;DHT22;13482;48.234;13.006;2023-06-10T05:25:41;21.10;68.90
25616;DHT22;13482;48.234;13.006;2023-06-10T05:28:09;21.30;69.00
25616;DHT22;13482;48.234;13.006;2023-06-10T05:30:41;21.40;68.90
25616;DHT22;13482;48.234;13.006;2023-06-10T05:33:08;21.60;68.80
25616;DHT22;13482;48.234;13.006;2023-06-10T05:35:36;21.80;68.30
25616;DHT22;13482;48.234;13.006;2023-06-10T05:38:03;21.90;68.30
25616;DHT22;13482;48.234;13.006;2023-06-10T05:40:30;22.10;68.30
25616;DHT22;13482;48.234;13.006;2023-06-10T05:42:58;22.20;68.10
25616;DHT22;13482;48.234;13.006;2023-06-10T05:45:25;22.40;68.30
25616;DHT22;13482;48.234;13.006;2023-06-10T05:47:53;22.50;68.20
25616;DHT22;13482;48.234;13.006;2023-06-10T05:50:21;22.70;68.30
25616;DHT22;13482;48.234;13.006;2023-06-10T05:52:48;22.90;68.00
25616;DHT22;13482;48.234;13.006;2023-06-10T05:55:16;23.10;67.60
25616;DHT22;13482;48.234;13.006;2023-06-10T05:57:43;23.30;67.50
25616;DHT22;13482;48.234;13.006;2023-06-10T06:00:11;23.40;67.60
25616;DHT22;13482;48.234;13.006;2023-06-10T06:02:40;23.60;67.60
25616;DHT22;13482;48.234;13.006;2023-06-10T06:05:08;23.80;67.30
25616;DHT22;13482;48.234;13.006;2023-06-10T06:07:36;23.90;67.00
25616;DHT22;13482;48.234;13.006;2023-06-10T06:10:04;24.10;66.40
25616;DHT22;13482;48.234;13.006;2023-06-10T06:12:32;24.20;66.00
25616;DHT22;13482;48.234;13.006;2023-06-10T06:14:59;24.30;65.90
25616;DHT22;13482;48.234;13.006;2023-06-10T06:17:27;24.30;65.90
25616;DHT22;13482;48.234;13.006;2023-06-10T06:19:54;24.50;65.80
25616;DHT22;13482;48.234;13.006;2023-06-10T06:22:21;24.60;65.70
25616;DHT22;13482;48.234;13.006;2023-06-10T06:24:49;24.70;66.00
25616;DHT22;13482;48.234;13.006;2023-06-10T06:27:16;24.90;66.10
25616;DHT22;13482;48.234;13.006;2023-06-10T06:29:44;25.00;65.90
25616;DHT22;13482;48.234;13.006;2023-06-10T06:32:12;25.20;65.60
25616;DHT22;13482;48.234;13.006;2023-06-10T06:34:39;25.40;65.50
25616;DHT22;13482;48.234;13.006;2023-06-10T06:37:07;25.50;65.40
25616;DHT22;13482;48.234;13.006;2023-06-10T06:39:34;25.70;65.40
25616;DHT22;13482;48.234;13.006;2023-06-10T06:42:02;25.80;65.10
25616;DHT22;13482;48.234;13.006;2023-06-10T06:44:30;26.00;65.00
25616;DHT22;13482;48.234;13.006;2023-06-10T06:46:57;26.10;64.90
25616;DHT22;13482;48.234;13.006;2023-06-10T06:49:24;26.30;64.60
25616;DHT22;13482;48.234;13.006;2023-06-10T06:51:52;26.40;64.40
25616;DHT22;13482;48.234;13.006;2023-06-10T06:54:19;26.60;64.10
25616;DHT22;13482;48.234;13.006;2023-06-10T06:56:46;26.70;64.00
25616;DHT22;13482;48.234;13.006;2023-06-10T06:59:14;26.80;63.80
25616;DHT22;13482;48.234;13.006;2023-06-10T07:01:41;26.90;63.30
25616;DHT22;13482;48.234;13.006;2023-06-10T07:04:09;27.00;63.30
25616;DHT22;13482;48.234;13.006;2023-06-10T07:06:36;27.10;63.20
25616;DHT22;13482;48.234;13.006;2023-06-10T07:09:05;27.20;63.20
25616;DHT22;13482;48.234;13.006;2023-06-10T07:11:33;27.40;63.10
25616;DHT22;13482;48.234;13.006;2023-06-10T07:14:00;27.50;62.90
25616;DHT22;13482;48.234;13.006;2023-06-10T07:16:28;27.60;62.50
25616;DHT22;13482;48.234;13.006;2023-06-10T07:18:56;27.70;62.50
25616;DHT22;13482;48.234;13.006;2023-06-10T07:21:23;27.80;62.80
25616;DHT22;13482;48.234;13.006;2023-06-10T07:23:51;27.90;62.40
25616;DHT22;13482;48.234;13.006;2023-06-10T07:26:24;28.00;62.10
25616;DHT22;13482;48.234;13.006;2023-06-10T07:28:52;28.10;61.60
25616;DHT22;13482;48.234;13.006;2023-06-10T07:31:20;28.20;61.60
25616;DHT22;13482;48.234;13.006;2023-06-10T07:33:47;28.20;61.30
25616;DHT22;13482;48.234;13.006;2023-06-10T07:36:14;28.20;61.00
25616;DHT22;13482;48.234;13.006;2023-06-10T07:38:42;28.20;60.90
25616;DHT22;13482;48.234;13.006;2023-06-10T07:41:09;28.20;60.80
25616;DHT22;13482;48.234;13.006;2023-06-10T07:43:37;28.20;60.90
25616;DHT22;13482;48.234;13.006;2023-06-10T07:46:05;28.30;61.00
25616;DHT22;13482;48.234;13.006;2023-06-10T07:48:32;28.30;61.30
25616;DHT22;13482;48.234;13.006;2023-06-10T07:51:00;28.40;61.10
25616;DHT22;13482;48.234;13.006;2023-06-10T07:53:27;28.50;61.30
25616;DHT22;13482;48.234;13.006;2023-06-10T07:55:55;28.50;61.40
25616;DHT22;13482;48.234;13.006;2023-06-10T07:58:23;28.60;61.00
25616;DHT22;13482;48.234;13.006;2023-06-10T08:00:50;28.70;60.70
25616;DHT22;13482;48.234;13.006;2023-06-10T08:03:17;28.80;60.70
25616;DHT22;13482;48.234;13.006;2023-06-10T08:05:45;28.80;60.60
25616;DHT22;13482;48.234;13.006;2023-06-10T08:08:13;28.90;60.50
25616;DHT22;13482;48.234;13.006;2023-06-10T08:10:41;29.00;60.60
25616;DHT22;13482;48.234;13.006;2023-06-10T08:13:08;29.10;60.40
25616;DHT22;13482;48.234;13.006;2023-06-10T08:15:36;29.20;60.20
25616;DHT22;13482;48.234;13.006;2023-06-10T08:18:03;29.30;60.10
25616;DHT22;13482;48.234;13.006;2023-06-10T08:20:31;29.30;59.80
25616;DHT22;13482;48.234;13.006;2023-06-10T08:22:59;29.40;59.80
25616;DHT22;13482;48.234;13.006;2023-06-10T08:25:27;29.50;59.60
25616;DHT22;13482;48.234;13.006;2023-06-10T08:27:54;29.50;59.40
25616;DHT22;13482;48.234;13.006;2023-06-10T08:30:23;29.60;59.50
25616;DHT22;13482;48.234;13.006;2023-06-10T08:32:50;29.70;59.50
25616;DHT22;13482;48.234;13.006;2023-06-10T08:35:19;29.70;59.30
25616;DHT22;13482;48.234;13.006;2023-06-10T08:37:46;29.80;59.40
25616;DHT22;13482;48.234;13.006;2023-06-10T08:40:14;29.90;58.90
25616;DHT22;13482;48.234;13.006;2023-06-10T08:43:08;29.90;58.60
25616;DHT22;13482;48.234;13.006;2023-06-10T08:45:44;29.90;57.90
25616;DHT22;13482;48.234;13.006;2023-06-10T08:48:14;29.90;58.20
25616;DHT22;13482;48.234;13.006;2023-06-10T08:50:42;29.90;58.00
25616;DHT22;13482;48.234;13.006;2023-06-10T08:53:14;29.80;58.20
25616;DHT22;13482;48.234;13.006;2023-06-10T08:55:50;29.80;57.90
25616;DHT22;13482;48.234;13.006;2023-06-10T08:58:20;29.80;58.50
25616;DHT22;13482;48.234;13.006;2023-06-10T09:00:47;29.80;58.40
25616;DHT22;13482;48.234;13.006;2023-06-10T09:03:15;29.90;58.30
25616;DHT22;13482;48.234;13.006;2023-06-10T09:05:44;29.90;58.20
25616;DHT22;13482;48.234;13.006;2023-06-10T09:08:11;29.90;58.20
25616;DHT22;13482;48.234;13.006;2023-06-10T09:10:40;29.90;58.10
25616;DHT22;13482;48.234;13.006;2023-06-10T09:13:08;30.00;57.70
25616;DHT22;13482;48.234;13.006;2023-06-10T09:15:35;30.00;57.70
25616;DHT22;13482;48.234;13.006;2023-06-10T09:18:03;30.00;57.70
25616;DHT22;13482;48.234;13.006;2023-06-10T09:20:32;30.00;57.60
25616;DHT22;13482;48.234;13.006;2023-06-10T09:23:00;30.00;57.60
25616;DHT22;13482;48.234;13.006;2023-06-10T09:25:36;30.00;57.30
25616;DHT22;13482;48.234;13.006;2023-06-10T09:28:12;30.00;56.90
25616;DHT22;13482;48.234;13.006;2023-06-10T09:30:41;30.00;57.10
25616;DHT22;13482;48.234;13.006;2023-06-10T09:33:15;30.00;57.00
25616;DHT22;13482;48.234;13.006;2023-06-10T09:35:49;29.90;56.90
25616;DHT22;13482;48.234;13.006;2023-06-10T09:38:21;29.90;56.60
25616;DHT22;13482;48.234;13.006;2023-06-10T09:40:54;29.80;56.80
25616;DHT22;13482;48.234;13.006;2023-06-10T09:43:22;29.80;56.90
25616;DHT22;13482;48.234;13.006;2023-06-10T09:45:50;29.70;57.10
25616;DHT22;13482;48.234;13.006;2023-06-10T09:48:21;29.70;57.00
25616;DHT22;13482;48.234;13.006;2023-06-10T09:50:50;29.70;56.90
25616;DHT22;13482;48.234;13.006;2023-06-10T09:53:18;29.70;56.70
25616;DHT22;13482;48.234;13.006;2023-06-10T09:55:45;29.60;56.80
25616;DHT22;13482;48.234;13.006;2023-06-10T09:58:13;29.60;57.00
25616;DHT22;13482;48.234;13.006;2023-06-10T10:00:41;29.60;57.00
25616;DHT22;13482;48.234;13.006;2023-06-10T10:03:08;29.60;57.10
25616;DHT22;13482;48.234;13.006;2023-06-10T10:05:36;29.60;57.30
25616;DHT22;13482;48.234;13.006;2023-06-10T10:08:03;29.60;57.20
25616;DHT22;13482;48.234;13.006;2023-06-10T10:10:31;29.60;56.90
25616;DHT22;13482;48.234;13.006;2023-06-10T10:12:59;29.60;56.90
25616;DHT22;13482;48.234;13.006;2023-06-10T10:15:29;29.60;56.90
25616;DHT22;13482;48.234;13.006;2023-06-10T10:18:07;29.60;56.80
25616;DHT22;13482;48.234;13.006;2023-06-10T10:20:43;29.60;56.80
25616;DHT22;13482;48.234;13.006;2023-06-10T10:23:36;29.60;57.00
25616;DHT22;13482;48.234;13.006;2023-06-10T10:26:12;29.50;56.80
25616;DHT22;13482;48.234;13.006;2023-06-10T10:28:45;29.50;56.90
25616;DHT22;13482;48.234;13.006;2023-06-10T10:31:35;29.50;57.00
25616;DHT22;13482;48.234;13.006;2023-06-10T10:34:07;29.50;56.90
25616;DHT22;13482;48.234;13.006;2023-06-10T10:36:37;29.50;56.90
25616;DHT22;13482;48.234;13.006;2023-06-10T10:39:05;29.50;57.10
25616;DHT22;13482;48.234;13.006;2023-06-10T10:41:32;29.60;57.10
25616;DHT22;13482;48.234;13.006;2023-06-10T10:44:02;29.60;57.10
25616;DHT22;13482;48.234;13.006;2023-06-10T10:46:44;29.70;57.00
25616;DHT22;13482;48.234;13.006;2023-06-10T10:49:18;29.70;56.90
25616;DHT22;13482;48.234;13.006;2023-06-10T10:51:58;29.80;57.50
25616;DHT22;13482;48.234;13.006;2023-06-10T10:54:30;29.90;57.80
25616;DHT22;13482;48.234;13.006;2023-06-10T10:57:17;30.10;57.70
25616;DHT22;13482;48.234;13.006;2023-06-10T11:02:35;30.50;57.30
25616;DHT22;13482;48.234;13.006;2023-06-10T11:05:15;30.70;56.50
25616;DHT22;13482;48.234;13.006;2023-06-10T11:07:54;30.80;56.70
25616;DHT22;13482;48.234;13.006;2023-06-10T11:10:50;31.00;56.50
25616;DHT22;13482;48.234;13.006;2023-06-10T11:13:21;31.20;56.60
25616;DHT22;13482;48.234;13.006;2023-06-10T11:15:52;31.40;56.70
25616;DHT22;13482;48.234;13.006;2023-06-10T11:18:28;31.50;55.70
25616;DHT22;13482;48.234;13.006;2023-06-10T11:21:02;31.60;55.70
25616;DHT22;13482;48.234;13.006;2023-06-10T11:23:33;31.80;54.90
25616;DHT22;13482;48.234;13.006;2023-06-10T11:29:06;31.80;54.60
25616;DHT22;13482;48.234;13.006;2023-06-10T11:31:43;31.90;54.90
25616;DHT22;13482;48.234;13.006;2023-06-10T11:34:22;31.90;54.60
25616;DHT22;13482;48.234;13.006;2023-06-10T11:36:52;32.00;54.80
25616;DHT22;13482;48.234;13.006;2023-06-10T11:39:21;32.10;54.60
25616;DHT22;13482;48.234;13.006;2023-06-10T11:41:51;32.10;54.30
25616;DHT22;13482;48.234;13.006;2023-06-10T11:44:19;32.20;54.30
25616;DHT22;13482;48.234;13.006;2023-06-10T11:46:48;32.20;53.90
25616;DHT22;13482;48.234;13.006;2023-06-10T11:49:17;32.30;53.90
25616;DHT22;13482;48.234;13.006;2023-06-10T11:51:44;32.30;53.70
25616;DHT22;13482;48.234;13.006;2023-06-10T11:54:16;32.20;53.70
25616;DHT22;13482;48.234;13.006;2023-06-10T11:56:45;32.20;53.60
25616;DHT22;13482;48.234;13.006;2023-06-10T11:59:13;32.10;53.60
25616;DHT22;13482;48.234;13.006;2023-06-10T12:01:45;32.00;53.70
25616;DHT22;13482;48.234;13.006;2023-06-10T12:04:15;31.90;53.40
25616;DHT22;13482;48.234;13.006;2023-06-10T12:06:48;31.80;53.30
25616;DHT22;13482;48.234;13.006;2023-06-10T12:09:17;31.60;53.50
25616;DHT22;13482;48.234;13.006;2023-06-10T12:11:59;31.50;53.70
25616;DHT22;13482;48.234;13.006;2023-06-10T12:14:57;31.30;54.00
25616;DHT22;13482;48.234;13.006;2023-06-10T12:20:27;31.00;54.20
25616;DHT22;13482;48.234;13.006;2023-06-10T12:22:56;30.90;54.30
25616;DHT22;13482;48.234;13.006;2023-06-10T12:25:26;30.70;54.50
25616;DHT22;13482;48.234;13.006;2023-06-10T12:27:56;30.60;54.40
25616;DHT22;13482;48.234;13.006;2023-06-10T12:30:26;30.50;54.40
25616;DHT22;13482;48.234;13.006;2023-06-10T12:32:55;30.40;54.40
25616;DHT22;13482;48.234;13.006;2023-06-10T12:35:24;30.20;54.40
25616;DHT22;13482;48.234;13.006;2023-06-10T12:38:04;30.00;54.60
25616;DHT22;13482;48.234;13.006;2023-06-10T12:40:37;29.90;54.50
25616;DHT22;13482;48.234;13.006;2023-06-10T12:43:07;29.80;54.70
25616;DHT22;13482;48.234;13.006;2023-06-10T12:45:39;29.60;54.70
25616;DHT22;13482;48.234;13.006;2023-06-10T12:48:11;29.50;55.10
25616;DHT22;13482;48.234;13.006;2023-06-10T12:50:41;29.30;55.30
25616;DHT22;13482;48.234;13.006;2023-06-10T12:53:10;29.20;55.60
25616;DHT22;13482;48.234;13.006;2023-06-10T12:55:39;29.10;55.80
25616;DHT22;13482;48.234;13.006;2023-06-10T12:58:06;29.00;55.90
25616;DHT22;13482;48.234;13.006;2023-06-10T13:00:33;28.90;56.20
25616;DHT22;13482;48.234;13.006;2023-06-10T13:03:02;28.80;56.30
25616;DHT22;13482;48.234;13.006;2023-06-10T13:05:34;28.70;56.40
25616;DHT22;13482;48.234;13.006;2023-06-10T13:08:08;28.60;56.30
25616;DHT22;13482;48.234;13.006;2023-06-10T13:10:39;28.50;56.50
25616;DHT22;13482;48.234;13.006;2023-06-10T13:13:06;28.40;56.50
25616;DHT22;13482;48.234;13.006;2023-06-10T13:15:37;28.30;56.50
25616;DHT22;13482;48.234;13.006;2023-06-10T13:18:09;28.20;56.50
25616;DHT22;13482;48.234;13.006;2023-06-10T13:20:37;28.10;56.70
25616;DHT22;13482;48.234;13.006;2023-06-10T13:23:05;28.10;56.90
25616;DHT22;13482;48.234;13.006;2023-06-10T13:25:32;28.10;57.50
25616;DHT22;13482;48.234;13.006;2023-06-10T13:28:00;28.10;57.70
25616;DHT22;13482;48.234;13.006;2023-06-10T13:30:28;28.20;58.00
25616;DHT22;13482;48.234;13.006;2023-06-10T13:32:55;28.30;58.00
25616;DHT22;13482;48.234;13.006;2023-06-10T13:35:23;28.40;57.80
25616;DHT22;13482;48.234;13.006;2023-06-10T13:37:50;28.50;57.80
25616;DHT22;13482;48.234;13.006;2023-06-10T13:40:17;28.70;58.00
25616;DHT22;13482;48.234;13.006;2023-06-10T13:42:46;28.90;57.90
25616;DHT22;13482;48.234;13.006;2023-06-10T13:45:18;29.00;57.70
25616;DHT22;13482;48.234;13.006;2023-06-10T13:47:45;29.20;57.40
25616;DHT22;13482;48.234;13.006;2023-06-10T13:50:12;29.30;56.90
25616;DHT22;13482;48.234;13.006;2023-06-10T13:52:40;29.40;56.90
25616;DHT22;13482;48.234;13.006;2023-06-10T13:55:08;29.50;56.90
25616;DHT22;13482;48.234;13.006;2023-06-10T13:57:36;29.60;57.10
25616;DHT22;13482;48.234;13.006;2023-06-10T14:00:04;29.70;56.90
25616;DHT22;13482;48.234;13.006;2023-06-10T14:02:32;29.80;56.80
25616;DHT22;13482;48.234;13.006;2023-06-10T14:05:00;29.90;57.00
25616;DHT22;13482;48.234;13.006;2023-06-10T14:07:28;30.00;57.10
25616;DHT22;13482;48.234;13.006;2023-06-10T14:09:56;30.00;57.00
25616;DHT22;13482;48.234;13.006;2023-06-10T14:12:23;30.10;56.80
25616;DHT22;13482;48.234;13.006;2023-06-10T14:14:50;30.20;56.60
25616;DHT22;13482;48.234;13.006;2023-06-10T14:17:18;30.30;56.70
25616;DHT22;13482;48.234;13.006;2023-06-10T14:19:45;30.40;56.70
25616;DHT22;13482;48.234;13.006;2023-06-10T14:22:13;30.50;56.50
25616;DHT22;13482;48.234;13.006;2023-06-10T14:24:40;30.60;56.50
25616;DHT22;13482;48.234;13.006;2023-06-10T14:27:07;30.80;56.70
25616;DHT22;13482;48.234;13.006;2023-06-10T14:29:35;30.90;56.50
25616;DHT22;13482;48.234;13.006;2023-06-10T14:32:02;31.00;56.00
25616;DHT22;13482;48.234;13.006;2023-06-10T14:34:34;31.10;55.80
25616;DHT22;13482;48.234;13.006;2023-06-10T14:37:02;31.20;55.40
25616;DHT22;13482;48.234;13.006;2023-06-10T14:39:34;31.20;55.60
25616;DHT22;13482;48.234;13.006;2023-06-10T14:42:02;31.30;55.20
25616;DHT22;13482;48.234;13.006;2023-06-10T14:44:30;31.40;55.00
25616;DHT22;13482;48.234;13.006;2023-06-10T14:46:58;31.50;54.80
25616;DHT22;13482;48.234;13.006;2023-06-10T14:49:25;31.50;54.90
25616;DHT22;13482;48.234;13.006;2023-06-10T14:51:53;31.60;55.00
25616;DHT22;13482;48.234;13.006;2023-06-10T14:54:21;31.70;55.10
25616;DHT22;13482;48.234;13.006;2023-06-10T14:56:48;31.80;54.60
25616;DHT22;13482;48.234;13.006;2023-06-10T14:59:15;31.90;54.40
25616;DHT22;13482;48.234;13.006;2023-06-10T15:01:43;32.00;54.20
25616;DHT22;13482;48.234;13.006;2023-06-10T15:04:10;32.10;54.00
25616;DHT22;13482;48.234;13.006;2023-06-10T15:06:38;32.10;53.80
25616;DHT22;13482;48.234;13.006;2023-06-10T15:09:05;32.10;53.70
25616;DHT22;13482;48.234;13.006;2023-06-10T15:11:32;32.10;53.60
25616;DHT22;13482;48.234;13.006;2023-06-10T15:14:00;32.00;53.40
25616;DHT22;13482;48.234;13.006;2023-06-10T15:16:28;32.00;53.30
25616;DHT22;13482;48.234;13.006;2023-06-10T15:18:55;31.90;53.20
25616;DHT22;13482;48.234;13.006;2023-06-10T15:21:23;31.90;53.00
25616;DHT22;13482;48.234;13.006;2023-06-10T15:23:50;31.80;52.90
25616;DHT22;13482;48.234;13.006;2023-06-10T15:26:18;31.70;52.70
25616;DHT22;13482;48.234;13.006;2023-06-10T15:28:46;31.60;52.40
25616;DHT22;13482;48.234;13.006;2023-06-10T15:31:13;31.50;52.40
25616;DHT22;13482;48.234;13.006;2023-06-10T15:33:41;31.30;52.30
25616;DHT22;13482;48.234;13.006;2023-06-10T15:36:13;31.20;52.40
25616;DHT22;13482;48.234;13.006;2023-06-10T15:38:40;31.10;52.50
25616;DHT22;13482;48.234;13.006;2023-06-10T15:41:08;31.00;52.40
25616;DHT22;13482;48.234;13.006;2023-06-10T15:43:35;30.80;52.40
25616;DHT22;13482;48.234;13.006;2023-06-10T15:46:02;30.60;52.50